Terminal Aerodrome Forecast
Issued by NWS

Home | Current Version | Previous Version | Text Only | Print | Product List | Glossary On
Versions: 1 2 3 4 5 6 7 8 9 10 11 12
000
FTUS45 KABQ 201724
TAFAEG
TAF
KAEG 201724Z 2018/2118 23015G25KT P6SM FEW060 SCT120
     FM202100 26018G25KT P6SM VCSH BKN070
     FM210000 29018G25KT P6SM VCSH BKN050
     FM210600 31010KT P6SM SCT050 BKN080
     FM211500 30012G20KT P6SM SCT080=

USA.gov is the U.S. government's official web portal to all federal, state and local government web resources and services.